createdAt,value
2022-08-28T00:00:26.102Z,99.90
2022-08-28T00:02:53.455Z,99.90
2022-08-28T00:05:22.208Z,99.90
2022-08-28T00:07:49.457Z,99.90
2022-08-28T00:10:19.126Z,99.90
2022-08-28T00:12:47.658Z,99.90
2022-08-28T00:15:17.908Z,99.90
2022-08-28T00:17:45.684Z,99.90
2022-08-28T00:20:14.576Z,99.90
2022-08-28T00:22:42.147Z,99.90
2022-08-28T00:25:10.720Z,99.90
2022-08-28T00:27:53.163Z,99.90
2022-08-28T00:30:28.002Z,99.90
2022-08-28T00:32:57.488Z,99.90
2022-08-28T00:35:25.048Z,99.90
2022-08-28T00:37:54.038Z,99.90
2022-08-28T00:40:30.451Z,99.90
2022-08-28T00:43:05.561Z,99.90
2022-08-28T00:45:38.718Z,99.90
2022-08-28T00:48:06.509Z,99.90
2022-08-28T00:51:00.421Z,99.90
2022-08-28T00:53:30.041Z,99.90
2022-08-28T00:56:05.147Z,99.90
2022-08-28T00:58:38.000Z,99.90
2022-08-28T01:01:04.847Z,99.90
2022-08-28T01:03:31.597Z,99.90
2022-08-28T01:05:58.542Z,99.90
2022-08-28T01:08:25.371Z,99.90
2022-08-28T01:10:59.999Z,99.90
2022-08-28T01:13:27.739Z,99.90
2022-08-28T01:15:55.729Z,99.90
2022-08-28T01:18:22.765Z,99.90
2022-08-28T01:21:06.207Z,99.90
2022-08-28T01:23:41.971Z,99.90
2022-08-28T01:26:11.654Z,99.90
2022-08-28T01:28:39.243Z,99.90
2022-08-28T01:31:06.471Z,99.90
2022-08-28T01:33:33.868Z,99.90
2022-08-28T01:36:00.735Z,99.90
2022-08-28T01:38:27.969Z,99.90
2022-08-28T01:40:57.199Z,99.90
2022-08-28T01:43:26.264Z,99.90
2022-08-28T01:45:56.041Z,99.90
2022-08-28T01:48:25.727Z,99.90
2022-08-28T01:50:53.284Z,99.90
2022-08-28T01:53:24.746Z,99.90
2022-08-28T01:55:54.228Z,99.90
2022-08-28T01:58:21.519Z,99.90
2022-08-28T02:00:48.324Z,99.90
2022-08-28T02:03:15.098Z,99.90
2022-08-28T02:05:43.073Z,99.90
2022-08-28T02:08:10.541Z,99.90
2022-08-28T02:10:38.894Z,99.90
2022-08-28T02:13:07.054Z,99.90
2022-08-28T02:15:36.190Z,99.90
2022-08-28T02:18:02.882Z,99.90
2022-08-28T02:20:30.089Z,99.90
2022-08-28T02:22:57.902Z,99.90
2022-08-28T02:25:25.977Z,99.90
2022-08-28T02:27:52.908Z,99.90
2022-08-28T02:30:20.255Z,99.90
2022-08-28T02:32:47.250Z,99.90
2022-08-28T02:35:16.576Z,99.90
2022-08-28T02:37:44.424Z,99.90
2022-08-28T02:40:14.338Z,99.90
2022-08-28T02:42:42.489Z,99.90
2022-08-28T02:45:11.661Z,99.90
2022-08-28T02:47:40.510Z,99.90
2022-08-28T02:50:09.512Z,99.90
2022-08-28T02:52:37.342Z,99.90
2022-08-28T02:55:08.220Z,99.90
2022-08-28T02:57:35.324Z,99.90
2022-08-28T03:00:04.831Z,99.90
2022-08-28T03:02:31.835Z,99.90
2022-08-28T03:04:59.767Z,99.90
2022-08-28T03:07:28.199Z,99.90
2022-08-28T03:09:55.134Z,99.90
2022-08-28T03:12:24.186Z,99.90
2022-08-28T03:14:52.074Z,99.90
2022-08-28T03:17:19.754Z,99.90
2022-08-28T03:19:46.553Z,99.90
2022-08-28T03:22:13.315Z,99.90
2022-08-28T03:24:40.014Z,99.90
2022-08-28T03:27:06.694Z,99.90
2022-08-28T03:29:33.497Z,99.90
2022-08-28T03:32:00.291Z,99.90
2022-08-28T03:34:27.090Z,99.90
2022-08-28T03:36:53.912Z,99.90
2022-08-28T03:39:20.697Z,99.90
2022-08-28T03:41:47.416Z,99.90
2022-08-28T03:44:15.214Z,99.90
2022-08-28T03:46:43.059Z,99.90
2022-08-28T03:49:09.841Z,99.90
2022-08-28T03:51:36.630Z,99.90
2022-08-28T03:54:04.562Z,99.90
2022-08-28T03:56:31.674Z,99.90
2022-08-28T03:59:01.433Z,99.90
2022-08-28T04:01:28.904Z,99.90
2022-08-28T04:03:56.673Z,99.90
2022-08-28T04:06:23.476Z,99.90
2022-08-28T04:08:51.096Z,99.90
2022-08-28T04:11:18.547Z,99.90
2022-08-28T04:13:45.910Z,99.90
2022-08-28T04:16:18.979Z,99.90
2022-08-28T04:18:48.025Z,99.90
2022-08-28T04:21:19.156Z,99.90
2022-08-28T04:23:46.804Z,99.90
2022-08-28T04:26:16.214Z,99.90
2022-08-28T04:28:43.829Z,99.90
2022-08-28T04:31:11.316Z,99.90
2022-08-28T04:33:39.161Z,99.90
2022-08-28T04:36:08.955Z,99.90
2022-08-28T04:38:40.434Z,99.90
2022-08-28T04:41:13.316Z,99.90
2022-08-28T04:43:40.028Z,99.90
2022-08-28T04:46:12.107Z,99.90
2022-08-28T04:48:39.970Z,99.90
2022-08-28T04:51:09.353Z,99.90
2022-08-28T04:53:37.962Z,99.90
2022-08-28T04:56:07.666Z,99.90
2022-08-28T04:58:34.703Z,99.90
2022-08-28T05:01:13.619Z,99.90
2022-08-28T05:03:40.432Z,99.90
2022-08-28T05:06:07.638Z,99.90
2022-08-28T05:08:34.382Z,99.90
2022-08-28T05:11:14.225Z,99.90
2022-08-28T05:13:59.552Z,99.90
2022-08-28T05:16:26.658Z,99.90
2022-08-28T05:18:53.511Z,99.90
2022-08-28T05:21:23.223Z,99.90
2022-08-28T05:23:53.495Z,99.90
2022-08-28T05:26:20.928Z,99.90
2022-08-28T05:28:48.424Z,99.90
2022-08-28T05:31:21.305Z,99.90
2022-08-28T05:33:49.618Z,99.90
2022-08-28T05:36:17.714Z,99.90
2022-08-28T05:38:44.475Z,99.90
2022-08-28T05:41:11.929Z,99.90
2022-08-28T05:43:39.413Z,99.90
2022-08-28T05:46:10.453Z,99.90
2022-08-28T05:48:39.637Z,99.90
2022-08-28T05:51:14.829Z,99.90
2022-08-28T05:53:43.643Z,99.90
2022-08-28T05:56:12.385Z,99.90
2022-08-28T05:58:40.390Z,99.90
2022-08-28T06:01:16.620Z,99.90
2022-08-28T06:03:46.357Z,99.90
2022-08-28T06:06:13.362Z,99.90
2022-08-28T06:08:58.505Z,99.90
2022-08-28T06:11:27.269Z,99.90
2022-08-28T06:14:02.877Z,99.90
2022-08-28T06:16:31.351Z,99.90
2022-08-28T06:18:59.010Z,99.90
2022-08-28T06:21:26.074Z,99.90
2022-08-28T06:23:52.870Z,99.90
2022-08-28T06:26:19.696Z,99.90
2022-08-28T06:28:46.429Z,99.90
2022-08-28T06:31:24.619Z,99.90
2022-08-28T06:33:54.851Z,99.90
2022-08-28T06:36:22.502Z,99.90
2022-08-28T06:38:49.698Z,99.90
2022-08-28T06:41:16.967Z,99.90
2022-08-28T06:43:43.658Z,99.90
2022-08-28T06:46:10.672Z,99.90
2022-08-28T06:48:37.549Z,99.90
2022-08-28T06:51:07.199Z,99.90
2022-08-28T06:53:34.249Z,99.90
2022-08-28T06:56:02.836Z,99.90
2022-08-28T06:58:29.705Z,99.90
2022-08-28T07:01:10.361Z,99.90
2022-08-28T07:03:37.926Z,99.90
2022-08-28T07:06:13.652Z,99.90
2022-08-28T07:08:41.862Z,99.90
2022-08-28T07:11:29.724Z,99.90
2022-08-28T07:13:57.438Z,99.90
2022-08-28T07:16:33.128Z,99.90
2022-08-28T07:19:02.698Z,99.90
2022-08-28T07:21:31.099Z,99.90
2022-08-28T07:23:58.237Z,99.90
2022-08-28T07:26:26.172Z,99.90
2022-08-28T07:29:09.562Z,99.90
2022-08-28T07:31:43.939Z,99.90
2022-08-28T07:34:11.966Z,99.90
2022-08-28T07:36:39.379Z,99.90
2022-08-28T07:39:08.437Z,99.90
2022-08-28T07:41:39.076Z,99.90
2022-08-28T07:44:26.324Z,99.90
2022-08-28T07:46:55.290Z,99.90
2022-08-28T07:49:22.841Z,99.90
2022-08-28T07:51:49.940Z,99.90
2022-08-28T07:54:20.978Z,99.90
2022-08-28T07:56:47.754Z,99.90
2022-08-28T07:59:16.852Z,99.90
2022-08-28T08:01:46.515Z,99.90
2022-08-28T08:04:16.161Z,99.90
2022-08-28T08:06:44.177Z,99.90
2022-08-28T08:09:13.936Z,99.90
2022-08-28T08:11:41.063Z,99.90
2022-08-28T08:14:08.307Z,99.90
2022-08-28T08:16:38.922Z,99.90
2022-08-28T08:19:09.789Z,99.90
2022-08-28T08:21:37.728Z,99.90
2022-08-28T08:24:04.758Z,99.90
2022-08-28T08:26:32.346Z,99.90
2022-08-28T08:28:59.610Z,99.90
2022-08-28T08:31:35.249Z,99.90
2022-08-28T08:34:04.474Z,99.90
2022-08-28T08:36:35.142Z,99.90
2022-08-28T08:39:02.368Z,99.90
2022-08-28T08:41:37.539Z,99.90
2022-08-28T08:44:07.518Z,99.90
2022-08-28T08:46:57.859Z,99.90
2022-08-28T08:49:29.468Z,99.90
2022-08-28T08:52:04.545Z,99.90
2022-08-28T08:54:31.799Z,99.90
2022-08-28T08:57:02.235Z,99.90
2022-08-28T08:59:34.928Z,99.90
2022-08-28T09:02:10.434Z,99.90
2022-08-28T09:04:40.247Z,99.90
2022-08-28T09:07:18.074Z,99.90
2022-08-28T09:09:46.919Z,99.90
2022-08-28T09:12:15.678Z,99.90
2022-08-28T09:14:58.228Z,99.90
2022-08-28T09:17:31.427Z,99.90
2022-08-28T09:19:58.439Z,99.90
2022-08-28T09:22:25.140Z,99.90
2022-08-28T09:24:52.045Z,99.90
2022-08-28T09:27:33.365Z,99.90
2022-08-28T09:30:10.823Z,99.90
2022-08-28T09:32:44.436Z,99.90
2022-08-28T09:35:27.165Z,99.90
2022-08-28T09:37:54.350Z,99.90
2022-08-28T09:40:25.310Z,99.90
2022-08-28T09:43:26.766Z,99.90
2022-08-28T09:45:59.661Z,99.90
2022-08-28T09:48:36.960Z,99.90
2022-08-28T09:51:13.416Z,99.90
2022-08-28T09:53:52.414Z,99.90
2022-08-28T09:56:35.750Z,99.90
2022-08-28T09:59:06.841Z,99.90
2022-08-28T10:01:46.268Z,99.90
2022-08-28T10:04:34.611Z,99.90
2022-08-28T10:07:19.346Z,99.90
2022-08-28T10:09:52.258Z,99.90
2022-08-28T10:12:44.385Z,99.90
2022-08-28T10:15:22.057Z,99.90
2022-08-28T10:18:12.883Z,99.90
2022-08-28T10:20:58.542Z,99.90
2022-08-28T10:23:37.107Z,99.90
2022-08-28T10:26:30.232Z,99.90
2022-08-28T10:29:03.137Z,99.90
2022-08-28T10:31:46.948Z,99.90
2022-08-28T10:34:13.665Z,99.90
2022-08-28T10:36:40.758Z,99.90
2022-08-28T10:39:49.465Z,99.90
2022-08-28T10:42:27.816Z,99.90
2022-08-28T10:45:24.163Z,99.90
2022-08-28T10:47:59.609Z,99.90
2022-08-28T10:50:45.784Z,99.90
2022-08-28T10:53:38.394Z,99.90
2022-08-28T10:56:17.517Z,99.90
2022-08-28T10:58:47.272Z,99.90
2022-08-28T11:01:24.828Z,99.90
2022-08-28T11:03:52.476Z,99.90
2022-08-28T11:06:40.909Z,98.80
2022-08-28T11:09:27.078Z,98.70
2022-08-28T11:12:05.674Z,98.90
2022-08-28T11:14:48.088Z,98.40
2022-08-28T11:17:30.490Z,97.70
2022-08-28T11:20:15.627Z,97.80
2022-08-28T11:22:48.468Z,97.30
2022-08-28T11:25:43.497Z,97.50
2022-08-28T11:28:18.109Z,96.90
2022-08-28T11:31:10.138Z,97.20
2022-08-28T11:33:52.294Z,96.20
2022-08-28T11:36:21.881Z,96.90
2022-08-28T11:38:51.590Z,96.40
2022-08-28T11:41:22.523Z,96.10
2022-08-28T11:44:13.532Z,95.50
2022-08-28T11:46:40.241Z,95.20
2022-08-28T11:49:29.139Z,95.00
2022-08-28T11:52:21.758Z,94.50
2022-08-28T11:55:13.246Z,94.60
2022-08-28T12:00:56.097Z,94.00
2022-08-28T12:03:28.557Z,93.30
2022-08-28T12:05:57.483Z,93.10
2022-08-28T12:08:51.208Z,92.50
2022-08-28T12:11:39.732Z,92.20
2022-08-28T12:14:08.482Z,92.30
2022-08-28T12:17:14.600Z,92.10
2022-08-28T12:19:55.526Z,91.40
2022-08-28T12:22:52.830Z,90.80
2022-08-28T12:25:33.300Z,90.40
2022-08-28T12:28:14.806Z,90.70
2022-08-28T12:30:53.033Z,91.00
2022-08-28T12:33:34.933Z,91.30
2022-08-28T12:36:04.396Z,91.30
2022-08-28T12:38:33.576Z,90.80
2022-08-28T12:41:02.408Z,90.20
2022-08-28T12:43:31.635Z,89.50
2022-08-28T12:46:19.621Z,88.50
2022-08-28T12:48:50.229Z,87.50
2022-08-28T12:51:35.569Z,86.50
2022-08-28T12:54:08.242Z,86.40
2022-08-28T12:56:37.613Z,86.20
2022-08-28T12:59:23.144Z,85.30
2022-08-28T13:01:54.758Z,85.30
2022-08-28T13:04:28.078Z,85.10
2022-08-28T13:07:06.329Z,83.10
2022-08-28T13:09:33.475Z,82.30
2022-08-28T13:12:00.347Z,82.00
2022-08-28T13:14:46.693Z,80.10
2022-08-28T13:17:15.410Z,79.70
2022-08-28T13:19:43.163Z,79.00
2022-08-28T13:22:32.863Z,78.00
2022-08-28T13:25:02.360Z,77.60
2022-08-28T13:27:29.458Z,76.60
2022-08-28T13:29:58.095Z,75.40
2022-08-28T13:32:27.922Z,75.80
2022-08-28T13:35:31.700Z,75.10
2022-08-28T13:38:05.660Z,75.60
2022-08-28T13:43:44.036Z,73.20
2022-08-28T13:46:10.771Z,72.90
2022-08-28T13:48:37.622Z,72.20
2022-08-28T13:51:10.276Z,70.80
2022-08-28T13:53:38.212Z,70.40
2022-08-28T13:56:05.258Z,71.20
2022-08-28T13:58:32.083Z,71.00
2022-08-28T14:00:59.208Z,71.00
2022-08-28T14:03:39.043Z,70.50
2022-08-28T14:06:14.103Z,70.30
2022-08-28T14:08:43.325Z,69.20
2022-08-28T14:11:12.823Z,69.90
2022-08-28T14:13:40.412Z,70.60
2022-08-28T14:16:16.676Z,71.50
2022-08-28T14:18:43.559Z,72.00
2022-08-28T14:21:10.326Z,72.40
2022-08-28T14:23:37.139Z,73.00
2022-08-28T14:26:05.710Z,73.50
2022-08-28T14:28:32.686Z,73.80
2022-08-28T14:30:59.628Z,74.60
2022-08-28T14:33:26.464Z,74.10
2022-08-28T14:35:54.571Z,73.30
2022-08-28T14:38:21.379Z,73.90
2022-08-28T14:40:48.166Z,73.20
2022-08-28T14:43:15.219Z,72.10
2022-08-28T14:45:47.344Z,72.10
2022-08-28T14:48:18.551Z,72.30
2022-08-28T14:50:48.110Z,71.30
2022-08-28T14:53:15.806Z,70.70
2022-08-28T14:55:45.813Z,69.60
2022-08-28T14:58:13.711Z,69.20
2022-08-28T15:00:46.288Z,68.90
2022-08-28T15:03:13.950Z,68.70
2022-08-28T15:05:41.264Z,68.30
2022-08-28T15:08:10.009Z,68.40
2022-08-28T15:10:42.181Z,68.70
2022-08-28T15:13:10.670Z,69.10
2022-08-28T15:15:42.255Z,67.90
2022-08-28T15:18:10.443Z,67.70
2022-08-28T15:20:43.383Z,68.00
2022-08-28T15:23:11.651Z,67.60
2022-08-28T15:25:38.465Z,66.50
2022-08-28T15:28:05.381Z,67.50
2022-08-28T15:30:32.601Z,68.30
2022-08-28T15:32:59.614Z,67.40
2022-08-28T15:35:26.460Z,68.10
2022-08-28T15:37:53.571Z,68.30
2022-08-28T15:40:39.468Z,68.70
2022-08-28T15:43:06.463Z,68.40
2022-08-28T15:45:37.452Z,67.70
2022-08-28T15:48:04.735Z,68.80
2022-08-28T15:50:31.841Z,68.10
2022-08-28T15:52:58.951Z,68.80
2022-08-28T15:55:27.339Z,69.50
2022-08-28T15:57:55.131Z,70.10
2022-08-28T16:00:22.593Z,68.70
2022-08-28T16:02:49.528Z,69.10
2022-08-28T16:05:16.975Z,69.40
2022-08-28T16:07:44.708Z,69.90
2022-08-28T16:10:13.470Z,69.30
2022-08-28T16:12:40.912Z,69.00
2022-08-28T16:15:09.017Z,69.70
2022-08-28T16:17:35.956Z,69.60
2022-08-28T16:20:12.857Z,69.40
2022-08-28T16:22:40.168Z,68.90
2022-08-28T16:25:07.687Z,69.80
2022-08-28T16:27:34.463Z,70.10
2022-08-28T16:30:03.715Z,70.30
2022-08-28T16:32:30.624Z,70.80
2022-08-28T16:34:58.498Z,72.50
2022-08-28T16:37:26.064Z,71.90
2022-08-28T16:40:06.464Z,72.80
2022-08-28T16:42:33.242Z,71.40
2022-08-28T16:45:01.869Z,71.70
2022-08-28T16:47:31.767Z,71.90
2022-08-28T16:50:01.889Z,71.70
2022-08-28T16:52:28.665Z,71.70
2022-08-28T16:54:55.447Z,72.00
2022-08-28T16:57:22.622Z,72.60
2022-08-28T16:59:53.072Z,72.80
2022-08-28T17:02:24.883Z,73.00
2022-08-28T17:05:00.470Z,72.80
2022-08-28T17:07:27.726Z,73.30
2022-08-28T17:09:54.524Z,73.70
2022-08-28T17:12:21.901Z,73.60
2022-08-28T17:14:48.854Z,73.80
2022-08-28T17:17:15.770Z,74.10
2022-08-28T17:19:42.527Z,74.00
2022-08-28T17:22:28.065Z,74.10
2022-08-28T17:24:55.384Z,73.90
2022-08-28T17:27:22.731Z,74.50
2022-08-28T17:29:50.368Z,74.90
2022-08-28T17:32:17.613Z,75.00
2022-08-28T17:34:44.534Z,75.00
2022-08-28T17:37:11.521Z,74.60
2022-08-28T17:39:38.754Z,75.40
2022-08-28T17:42:06.194Z,75.50
2022-08-28T17:44:33.328Z,75.60
2022-08-28T17:47:00.933Z,76.60
2022-08-28T17:49:27.837Z,75.80
2022-08-28T17:51:54.699Z,76.00
2022-08-28T17:54:24.169Z,76.10
2022-08-28T17:56:53.140Z,76.30
2022-08-28T17:59:20.848Z,76.90
2022-08-28T18:01:48.592Z,76.90
2022-08-28T18:04:21.642Z,77.40
2022-08-28T18:06:52.727Z,77.40
2022-08-28T18:09:21.533Z,77.30
2022-08-28T18:11:48.938Z,77.60
2022-08-28T18:14:15.935Z,78.00
2022-08-28T18:16:43.105Z,78.10
2022-08-28T18:19:11.350Z,78.40
2022-08-28T18:21:39.970Z,78.70
2022-08-28T18:24:08.548Z,79.10
2022-08-28T18:26:35.492Z,81.90
2022-08-28T18:29:02.433Z,81.50
2022-08-28T18:31:29.466Z,82.10
2022-08-28T18:33:56.665Z,82.40
2022-08-28T18:36:24.195Z,82.50
2022-08-28T18:38:51.621Z,83.00
2022-08-28T18:41:21.816Z,83.90
2022-08-28T18:43:59.937Z,84.10
2022-08-28T18:46:31.589Z,84.50
2022-08-28T18:48:59.179Z,85.30
2022-08-28T18:51:26.252Z,86.10
2022-08-28T18:53:53.135Z,86.20
2022-08-28T18:56:20.009Z,86.50
2022-08-28T18:58:47.853Z,87.00
2022-08-28T19:01:16.016Z,87.20
2022-08-28T19:03:42.934Z,87.20
2022-08-28T19:06:13.295Z,87.10
2022-08-28T19:08:40.384Z,87.20
2022-08-28T19:11:09.454Z,87.60
2022-08-28T19:13:36.987Z,88.20
2022-08-28T19:16:05.074Z,87.90
2022-08-28T19:18:32.049Z,89.10
2022-08-28T19:21:10.134Z,89.60
2022-08-28T19:23:41.882Z,89.40
2022-08-28T19:26:23.638Z,89.50
2022-08-28T19:28:50.648Z,89.50
2022-08-28T19:31:17.781Z,89.40
2022-08-28T19:33:46.548Z,89.50
2022-08-28T19:36:14.665Z,89.80
2022-08-28T19:38:42.209Z,90.10
2022-08-28T19:41:10.450Z,90.30
2022-08-28T19:43:44.210Z,90.40
2022-08-28T19:46:18.446Z,90.50
2022-08-28T19:48:51.341Z,90.30
2022-08-28T19:51:22.481Z,90.50
2022-08-28T19:53:56.750Z,90.80
2022-08-28T19:56:27.409Z,90.90
2022-08-28T19:58:56.600Z,91.00
2022-08-28T20:01:23.903Z,91.10
2022-08-28T20:03:51.069Z,91.30
2022-08-28T20:06:18.322Z,91.50
2022-08-28T20:08:45.112Z,91.70
2022-08-28T20:11:25.306Z,91.60
2022-08-28T20:13:53.243Z,91.70
2022-08-28T20:16:20.157Z,91.60
2022-08-28T20:18:48.631Z,91.80
2022-08-28T20:21:15.439Z,91.90
2022-08-28T20:23:42.429Z,92.10
2022-08-28T20:26:10.578Z,92.20
2022-08-28T20:28:37.665Z,92.20
2022-08-28T20:31:10.446Z,92.50
2022-08-28T20:33:37.431Z,92.60
2022-08-28T20:36:07.078Z,92.90
2022-08-28T20:38:44.818Z,93.00
2022-08-28T20:41:21.194Z,93.30
2022-08-28T20:43:48.463Z,93.80
2022-08-28T20:46:17.072Z,93.90
2022-08-28T20:48:44.416Z,93.90
2022-08-28T20:51:11.644Z,93.90
2022-08-28T20:53:39.473Z,94.10
2022-08-28T20:56:09.014Z,93.90
2022-08-28T20:58:36.256Z,93.90
2022-08-28T21:01:03.481Z,94.00
2022-08-28T21:03:30.313Z,94.10
2022-08-28T21:05:57.110Z,94.10
2022-08-28T21:08:23.806Z,94.20
2022-08-28T21:10:52.566Z,94.20
2022-08-28T21:13:19.697Z,94.40
2022-08-28T21:15:46.432Z,94.30
2022-08-28T21:18:13.867Z,94.60
2022-08-28T21:20:40.856Z,94.80
2022-08-28T21:23:07.658Z,94.90
2022-08-28T21:25:34.394Z,94.80
2022-08-28T21:28:04.250Z,95.00
2022-08-28T21:30:31.782Z,94.90
2022-08-28T21:32:58.790Z,94.90
2022-08-28T21:35:25.563Z,95.00
2022-08-28T21:37:52.324Z,95.00
2022-08-28T21:40:19.652Z,95.10
2022-08-28T21:42:46.471Z,95.10
2022-08-28T21:45:13.408Z,95.30
2022-08-28T21:47:42.097Z,95.40
2022-08-28T21:50:10.124Z,95.50
2022-08-28T21:52:36.875Z,95.60
2022-08-28T21:55:08.018Z,95.70
2022-08-28T21:57:35.168Z,95.80
2022-08-28T22:00:02.165Z,95.80
2022-08-28T22:02:29.017Z,96.00
2022-08-28T22:04:55.832Z,96.00
2022-08-28T22:07:22.594Z,96.20
2022-08-28T22:09:50.708Z,96.20
2022-08-28T22:12:17.765Z,96.40
2022-08-28T22:14:44.470Z,96.40
2022-08-28T22:17:12.213Z,96.40
2022-08-28T22:19:39.522Z,96.50
2022-08-28T22:22:25.314Z,96.60
2022-08-28T22:24:52.031Z,96.70
2022-08-28T22:27:18.861Z,96.90
2022-08-28T22:29:45.684Z,97.10
2022-08-28T22:32:12.472Z,97.10
2022-08-28T22:34:42.072Z,97.20
2022-08-28T22:37:11.432Z,97.30
2022-08-28T22:39:40.020Z,97.30
2022-08-28T22:42:07.248Z,97.30
2022-08-28T22:44:34.486Z,97.40
2022-08-28T22:47:01.345Z,97.40
2022-08-28T22:49:28.359Z,97.50
2022-08-28T22:51:55.062Z,97.60
2022-08-28T22:54:21.826Z,97.70
2022-08-28T22:56:48.668Z,97.70
2022-08-28T22:59:15.600Z,97.90
2022-08-28T23:01:42.922Z,97.90
2022-08-28T23:04:11.079Z,97.90
2022-08-28T23:06:40.924Z,98.00
2022-08-28T23:09:08.445Z,98.10
2022-08-28T23:11:36.829Z,98.10
2022-08-28T23:14:05.314Z,98.20
2022-08-28T23:16:32.938Z,98.20
2022-08-28T23:19:08.764Z,98.10
2022-08-28T23:21:40.878Z,98.20
2022-08-28T23:24:11.952Z,98.30
2022-08-28T23:26:38.676Z,98.30
2022-08-28T23:29:05.653Z,98.40
2022-08-28T23:31:32.517Z,98.40
2022-08-28T23:33:59.869Z,98.50
2022-08-28T23:36:26.945Z,98.60
2022-08-28T23:38:53.782Z,98.60
2022-08-28T23:41:20.955Z,98.70
2022-08-28T23:43:48.884Z,98.70
2022-08-28T23:46:20.042Z,98.80
2022-08-28T23:48:49.622Z,98.80
2022-08-28T23:51:17.205Z,98.80
2022-08-28T23:53:44.239Z,98.90
2022-08-28T23:56:12.842Z,98.90
2022-08-28T23:58:39.905Z,99.00
